首页
METAR-TAF:

METAR-TAF

机场 :

Chicago Rockford International Airport

罗克福德, 伊利诺伊州, 美国

纬度: 42-11-34N, 经度: 089-05-36W, 海拔: 224米

当前天气观测

该预报发布于1小时和0分钟前的13:54 UTC
风速20节,风向西转西北,有时为26节阵风
温度 5°C
湿度 56%
气压 1010 hPa
能見度: 16.1公里
少量云层高于25000英尺

METAR: KRFD 091354Z 29020G26KT 10SM FEW250 05/M03 A2983 RMK AO2 PK WND 29027/1343 SLP106 T00501033

时间: 09:54 (14:54 UTC)

预报

该预报发布于3小时和34分钟前的11:20 UTC
预报有效从09日的 12点(UTC)到 10日的 12点(UTC)
风速14节,风向西转西北,有时为22节阵风
能見度: 10公里
天空无云
从 09日的 1400点(UTC)
风速22节,风向西转西北,有时为35节阵风
能見度: 10公里
多云层高于5000英尺
短暂存在
从 09日的 19点(UTC)到 09日的 23点(UTC)
风速30节,风向西转西北,有时为45节阵风
能見度: 4.8公里
阵雨, 雪, 小冰雹或雪球
从 10日的 0200点(UTC)
风速15节,风向西北,有时为25节阵风
能見度: 10公里
散云层高于12000英尺
从 10日的 0600点(UTC)
风速12节,风向西转西北
能見度: 10公里
天空无云

TAF: KRFD 091120Z 0912/1012 30014G22KT P6SM SKC FM091400 30022G35KT P6SM BKN050 TEMPO 0919/0923 30030G45KT 3SM SHRASNGS FM100200 31015G25KT P6SM SCT120 FM100600 30012KT P6SM SKC

超过4000个机场的气象观测和天气预报(METAR&TAF报告)。

可查询的气象台以黄色和红色小点在地图上表示。

将鼠标移到小点上方,可查看气象台名称。

然后点击查看天气观测和预报。

如需切换地图:点击带黑十字的绿色按钮放大地图;点击带横线的绿色按钮缩小地图;或者点击绿色箭头查看邻近地区的地图。


METAR-TAF: